Time;durP1;ratioP1;P1;durP2;ratioP2;P2;SDS_P1;SDS_P2;PMS_P1;PMS_P2;Temp;Humidity;BMP_temperature;BMP_pressure;BME280_temperature;BME280_humidity;BME280_pressure;Samples;Min_cycle;Max_cycle;Signal;HPM_P1;HPM_P2
2021/09/29 00:00:55;;;;;;;6.55;4.05;;;;;;;15.84;71.35;101179.97;4924552;28;127484;-60
2021/09/29 00:03:21;;;;;;;7.15;3.85;;;;;;;15.84;71.67;101179.16;4906958;28;128897;-61
2021/09/29 00:05:47;;;;;;;4.75;4.10;;;;;;;15.83;71.66;101174.81;4924920;28;127292;-61
2021/09/29 00:08:13;;;;;;;6.30;3.78;;;;;;;15.81;71.23;101171.56;4926155;28;98058;-61
2021/09/29 00:10:41;;;;;;;7.28;3.75;;;;;;;15.81;71.31;101171.56;4925692;28;97872;-61
2021/09/29 00:13:07;;;;;;;6.80;3.90;;;;;;;15.80;71.48;101168.06;4925825;28;99008;-61
2021/09/29 00:15:33;;;;;;;4.72;3.45;;;;;;;15.79;71.58;101166.41;4925504;28;116131;-62
2021/09/29 00:17:59;;;;;;;5.75;3.50;;;;;;;15.79;71.46;101162.88;4924608;28;121845;-62
2021/09/29 00:20:25;;;;;;;9.00;4.78;;;;;;;15.77;71.42;101162.38;4924692;28;127921;-61
2021/09/29 00:22:51;;;;;;;5.63;4.53;;;;;;;15.74;71.47;101147.44;4925007;28;128322;-62
2021/09/29 00:25:18;;;;;;;7.22;3.97;;;;;;;15.71;71.60;101156.97;4891827;28;97936;-62
2021/09/29 00:27:44;;;;;;;6.95;4.00;;;;;;;15.68;71.96;101151.31;4926336;28;97806;-62
2021/09/29 00:30:11;;;;;;;5.82;3.90;;;;;;;15.66;71.93;101150.78;4923533;28;103739;-62
2021/09/29 00:32:41;;;;;;;6.72;4.28;;;;;;;15.62;71.83;101142.34;4923682;28;98756;-62
2021/09/29 00:35:10;;;;;;;6.57;3.95;;;;;;;15.60;71.82;101139.13;4925162;28;98750;-63
2021/09/29 00:37:36;;;;;;;4.75;3.75;;;;;;;15.59;72.18;101142.91;4921410;28;111764;-61
2021/09/29 00:40:04;;;;;;;5.25;3.55;;;;;;;15.60;71.84;101144.56;4921761;28;98638;-61
2021/09/29 00:42:30;;;;;;;6.22;3.33;;;;;;;15.59;72.43;101147.53;4922094;28;98325;-61
2021/09/29 00:44:56;;;;;;;6.85;3.60;;;;;;;15.60;72.32;101141.00;4921624;28;127459;-60
2021/09/29 00:47:22;;;;;;;4.03;3.63;;;;;;;15.60;72.38;101143.72;4919664;28;122011;-61
2021/09/29 00:49:48;;;;;;;6.22;3.60;;;;;;;15.60;72.21;101139.13;4922783;28;98552;-62
2021/09/29 00:52:14;;;;;;;5.38;3.58;;;;;;;15.63;72.16;101143.97;4921195;28;126176;-61
2021/09/29 00:54:41;;;;;;;6.13;3.63;;;;;;;15.62;72.37;101146.97;4904739;28;98349;-61
2021/09/29 00:57:08;;;;;;;5.93;3.45;;;;;;;15.61;72.23;101139.94;4920255;28;97916;-61
2021/09/29 00:59:35;;;;;;;5.28;3.67;;;;;;;15.62;72.30;101142.34;4922625;28;98533;-61
2021/09/29 01:02:01;;;;;;;4.78;3.38;;;;;;;15.60;72.80;101144.56;4921493;28;98058;-61
2021/09/29 01:04:27;;;;;;;5.10;3.33;;;;;;;15.60;72.25;101136.41;4922059;28;107831;-61
2021/09/29 01:07:08;;;;;;;5.45;3.50;;;;;;;15.58;72.26;101137.75;4920932;28;97872;-62
2021/09/29 01:09:49;;;;;;;5.95;3.85;;;;;;;15.60;72.41;101138.28;4919294;28;109824;-61
2021/09/29 01:12:30;;;;;;;6.43;4.20;;;;;;;15.56;72.38;101127.19;4920091;28;98826;-61
2021/09/29 01:15:09;;;;;;;5.28;3.75;;;;;;;15.54;72.30;101121.22;4920134;28;98687;-61
2021/09/29 01:17:41;;;;;;;5.90;3.80;;;;;;;15.53;72.31;101125.03;4904844;28;97740;-61
2021/09/29 01:20:19;;;;;;;5.43;3.78;;;;;;;15.50;72.34;101117.44;4920407;28;99084;-63
2021/09/29 01:23:08;;;;;;;6.93;3.80;;;;;;;15.49;72.28;101117.75;4919970;28;98581;-62
2021/09/29 01:25:49;;;;;;;6.10;4.35;;;;;;;15.47;72.23;101116.09;4905694;28;98311;-61
2021/09/29 01:28:18;;;;;;;5.80;4.10;;;;;;;15.46;73.08;101109.06;4921248;28;97811;-62
2021/09/29 01:30:45;;;;;;;5.60;3.92;;;;;;;15.50;72.56;101109.31;4902806;28;109201;-60
2021/09/29 01:33:11;;;;;;;6.82;4.20;;;;;;;15.52;72.52;101106.28;4902943;28;114237;-62
2021/09/29 01:35:37;;;;;;;8.48;4.38;;;;;;;15.52;72.82;101095.41;4920865;28;117553;-61
2021/09/29 01:38:04;;;;;;;7.45;4.20;;;;;;;15.54;72.81;101090.53;4920479;28;121679;-62
2021/09/29 01:40:30;;;;;;;6.40;4.15;;;;;;;15.51;72.68;101086.47;4918568;28;112240;-61
2021/09/29 01:42:56;;;;;;;7.20;4.55;;;;;;;15.49;72.63;101083.25;4920496;28;98393;-63
2021/09/29 01:45:23;;;;;;;7.57;4.70;;;;;;;15.46;72.52;101084.59;4920769;28;98666;-62
2021/09/29 01:47:49;;;;;;;9.45;5.03;;;;;;;15.47;72.71;101077.25;4918821;28;97937;-61
2021/09/29 01:50:16;;;;;;;9.15;4.88;;;;;;;15.45;72.69;101071.31;4902109;28;125761;-63
2021/09/29 01:52:43;;;;;;;7.32;4.68;;;;;;;15.44;73.18;101065.09;4903015;28;117465;-62
2021/09/29 01:55:11;;;;;;;8.80;5.07;;;;;;;15.43;72.88;101058.00;4903804;28;98325;-62
2021/09/29 01:57:37;;;;;;;10.68;5.43;;;;;;;15.41;72.93;101062.13;4904065;28;98353;-61
2021/09/29 02:00:06;;;;;;;9.48;4.85;;;;;;;15.37;73.00;101058.34;4919284;28;98343;-61
2021/09/29 02:02:32;;;;;;;8.13;4.90;;;;;;;15.36;73.55;101056.72;4920531;28;98743;-62
2021/09/29 02:04:58;;;;;;;10.10;5.47;;;;;;;15.35;73.60;101063.25;4918170;28;128644;-61
2021/09/29 02:07:27;;;;;;;8.65;4.85;;;;;;;15.32;73.29;101061.91;4920061;28;122154;-61
2021/09/29 02:09:53;;;;;;;10.68;4.95;;;;;;;15.35;73.37;101058.63;4921338;28;98405;-61
2021/09/29 02:12:19;;;;;;;10.88;6.00;;;;;;;15.34;73.71;101054.28;4919094;28;127853;-61
2021/09/29 02:14:45;;;;;;;11.95;5.63;;;;;;;15.35;73.60;101055.09;4920468;28;128108;-61
2021/09/29 02:17:11;;;;;;;12.27;6.40;;;;;;;15.36;73.54;101056.72;4920098;28;122902;-61
2021/09/29 02:19:37;;;;;;;12.23;6.75;;;;;;;15.36;73.41;101048.56;4920117;28;99187;-63
2021/09/29 02:22:04;;;;;;;12.48;7.03;;;;;;;15.34;73.56;101046.16;4920326;28;98432;-61
2021/09/29 02:24:30;;;;;;;12.98;7.13;;;;;;;15.35;73.77;101050.47;4922298;28;98138;-62
2021/09/29 02:26:56;;;;;;;12.88;7.68;;;;;;;15.35;73.86;101047.75;4921102;28;97793;-61
2021/09/29 02:29:22;;;;;;;13.90;8.23;;;;;;;15.35;73.39;101036.91;4919418;28;126156;-61
2021/09/29 02:31:48;;;;;;;13.70;7.75;;;;;;;15.36;73.76;101043.94;4919148;28;126415;-62
2021/09/29 02:34:14;;;;;;;14.00;8.85;;;;;;;15.36;73.93;101032.25;4919904;28;120373;-63
2021/09/29 02:36:40;;;;;;;14.63;9.02;;;;;;;15.36;73.81;101033.06;4919207;28;122635;-63
2021/09/29 02:39:06;;;;;;;15.60;9.15;;;;;;;15.36;73.54;101043.94;4921021;28;98434;-61
2021/09/29 02:41:32;;;;;;;16.20;8.77;;;;;;;15.36;73.99;101038.50;4918980;28;128279;-63
2021/09/29 02:43:59;;;;;;;16.15;8.75;;;;;;;15.36;73.89;101040.41;4920882;28;98912;-63
2021/09/29 02:46:26;;;;;;;15.15;9.23;;;;;;;15.36;74.18;101038.50;4920266;28;97931;-61
2021/09/29 02:48:52;;;;;;;16.33;9.25;;;;;;;15.35;74.24;101041.53;4919099;28;98838;-63
2021/09/29 02:51:18;;;;;;;15.02;9.15;;;;;;;15.35;73.84;101038.81;4902512;28;100546;-63
2021/09/29 02:53:44;;;;;;;18.42;9.52;;;;;;;15.34;73.84;101039.91;4920126;28;97884;-61
2021/09/29 02:56:10;;;;;;;15.80;9.48;;;;;;;15.32;74.20;101037.44;4919137;28;123853;-63
2021/09/29 02:58:36;;;;;;;15.20;8.77;;;;;;;15.32;74.05;101031.22;4919828;28;127243;-62
2021/09/29 03:01:02;;;;;;;15.60;9.35;;;;;;;15.31;74.14;101038.56;4917823;28;129751;-61
2021/09/29 03:03:28;;;;;;;16.23;9.32;;;;;;;15.33;74.11;101032.88;4919690;28;98257;-61
2021/09/29 03:05:54;;;;;;;18.52;10.00;;;;;;;15.32;74.49;101032.03;4920062;28;113583;-61
2021/09/29 03:08:20;;;;;;;16.40;10.38;;;;;;;15.34;74.19;101031.75;4917340;28;99015;-61
2021/09/29 03:10:46;;;;;;;19.73;10.38;;;;;;;15.32;74.39;101037.44;4919552;28;126991;-61
2021/09/29 03:13:13;;;;;;;18.58;11.43;;;;;;;15.29;74.48;101027.19;4919480;28;111929;-62
2021/09/29 03:15:39;;;;;;;16.42;9.93;;;;;;;15.28;74.56;101027.44;4920622;28;98029;-61
2021/09/29 03:18:05;;;;;;;18.83;11.32;;;;;;;15.27;74.33;101029.38;4918657;28;118876;-60
2021/09/29 03:20:31;;;;;;;20.38;10.93;;;;;;;15.27;74.55;101037.50;4920328;28;99303;-63
2021/09/29 03:22:58;;;;;;;20.65;12.60;;;;;;;15.25;74.68;101028.84;4919523;28;118503;-63
2021/09/29 03:25:24;;;;;;;22.42;12.60;;;;;;;15.26;74.69;101025.03;4921156;28;98702;-61
2021/09/29 03:27:50;;;;;;;18.83;12.50;;;;;;;15.27;74.72;101020.41;4919663;28;98100;-63
2021/09/29 03:30:17;;;;;;;19.20;13.57;;;;;;;15.27;74.80;101023.94;4917427;28;97836;-63
2021/09/29 03:32:43;;;;;;;20.45;13.82;;;;;;;15.30;74.43;101022.56;4919156;28;109539;-61
2021/09/29 03:35:12;;;;;;;24.77;14.88;;;;;;;15.27;74.39;101020.41;4918167;28;120655;-61
2021/09/29 03:37:41;;;;;;;23.42;14.55;;;;;;;15.27;74.88;101018.50;4918929;28;126996;-61
2021/09/29 03:40:13;;;;;;;21.95;14.10;;;;;;;15.27;74.50;101020.41;4919910;28;98305;-63
2021/09/29 03:42:40;;;;;;;21.87;14.47;;;;;;;15.29;74.86;101023.63;4918543;28;109247;-61
2021/09/29 03:45:08;;;;;;;22.92;15.20;;;;;;;15.30;75.01;101019.84;4919479;28;97972;-61
2021/09/29 03:47:34;;;;;;;26.67;15.55;;;;;;;15.31;74.96;101010.59;4918570;28;99253;-61
2021/09/29 03:50:00;;;;;;;21.38;14.40;;;;;;;15.27;74.85;101017.69;4918909;28;112329;-61
2021/09/29 03:52:26;;;;;;;21.85;14.82;;;;;;;15.29;74.70;101010.06;4918995;28;125691;-61
2021/09/29 03:54:52;;;;;;;22.05;15.25;;;;;;;15.29;74.74;101005.47;4918925;28;98001;-62
2021/09/29 03:57:18;;;;;;;25.38;16.33;;;;;;;15.28;75.00;100997.56;4919563;28;98291;-61
2021/09/29 03:59:44;;;;;;;27.10;16.40;;;;;;;15.26;75.02;101003.31;4919139;28;126276;-61
2021/09/29 04:02:10;;;;;;;26.13;16.75;;;;;;;15.25;74.62;101001.69;4918131;28;127607;-62
2021/09/29 04:04:36;;;;;;;26.67;16.30;;;;;;;15.24;75.12;101000.06;4918800;28;123775;-61
2021/09/29 04:07:02;;;;;;;27.60;16.52;;;;;;;15.23;75.39;100985.66;4918125;28;128011;-61
2021/09/29 04:09:28;;;;;;;25.58;16.95;;;;;;;15.23;75.11;100987.56;4918842;28;115041;-63
2021/09/29 04:11:54;;;;;;;28.10;16.55;;;;;;;15.23;75.37;100987.56;4919425;28;127368;-63
2021/09/29 04:14:21;;;;;;;25.77;16.40;;;;;;;15.22;75.44;100981.34;4921996;28;120838;-63
2021/09/29 04:16:47;;;;;;;27.75;16.88;;;;;;;15.22;75.38;100978.63;4921983;28;126202;-62
2021/09/29 04:19:14;;;;;;;29.95;17.17;;;;;;;15.22;75.57;100969.66;4923350;28;98941;-61
2021/09/29 04:21:40;;;;;;;25.33;16.25;;;;;;;15.21;75.20;100970.78;4904502;28;97998;-61
2021/09/29 04:24:08;;;;;;;24.38;16.52;;;;;;;15.20;75.33;100975.38;4922534;28;107737;-61
2021/09/29 04:26:34;;;;;;;25.63;17.48;;;;;;;15.19;75.38;100970.25;4921922;28;116695;-61
2021/09/29 04:29:00;;;;;;;25.35;16.60;;;;;;;15.17;75.71;100964.31;4921852;28;128221;-61
2021/09/29 04:31:26;;;;;;;28.52;17.05;;;;;;;15.15;76.07;100964.56;4921626;28;102668;-61
2021/09/29 04:33:52;;;;;;;27.25;17.23;;;;;;;15.12;75.83;100965.13;4921396;28;123806;-61
2021/09/29 04:36:18;;;;;;;28.80;17.77;;;;;;;15.12;76.10;100965.13;4920686;28;127117;-63
2021/09/29 04:38:44;;;;;;;27.75;17.13;;;;;;;15.14;76.24;100962.97;4922387;28;99711;-63
2021/09/29 04:41:10;;;;;;;27.20;17.17;;;;;;;15.14;75.71;100956.72;4920727;28;117107;-61
2021/09/29 04:43:36;;;;;;;27.23;17.15;;;;;;;15.14;76.05;100957.53;4903476;28;123627;-62
2021/09/29 04:46:02;;;;;;;28.50;18.05;;;;;;;15.14;76.02;100954.81;4921238;28;126768;-63
2021/09/29 04:48:28;;;;;;;27.88;17.00;;;;;;;15.15;75.67;100964.56;4921255;28;126963;-61
2021/09/29 04:50:54;;;;;;;28.45;18.00;;;;;;;15.15;75.91;100952.91;4903462;28;126347;-61
2021/09/29 04:53:20;;;;;;;28.67;18.02;;;;;;;15.17;76.01;100958.88;4886928;28;116092;-61
2021/09/29 04:55:47;;;;;;;26.40;17.88;;;;;;;15.16;75.62;100958.03;4921008;28;128215;-61
2021/09/29 04:58:13;;;;;;;27.83;17.60;;;;;;;15.15;76.12;100942.84;4922751;28;98239;-61
2021/09/29 05:00:39;;;;;;;26.95;17.95;;;;;;;15.15;75.92;100939.31;4921083;28;126465;-61
2021/09/29 05:03:06;;;;;;;27.30;17.02;;;;;;;15.14;76.07;100946.66;4921042;28;98279;-61
2021/09/29 05:05:34;;;;;;;28.20;18.30;;;;;;;15.13;75.57;100936.06;4903608;28;116568;-63
2021/09/29 05:08:01;;;;;;;28.80;17.67;;;;;;;15.13;75.88;100939.63;4913969;28;98464;-61
2021/09/29 05:10:38;;;;;;;26.90;18.52;;;;;;;15.10;75.83;100940.19;4921071;28;114164;-64
2021/09/29 05:13:06;;;;;;;27.42;17.83;;;;;;;15.11;75.94;100939.09;4921056;28;112623;-61
2021/09/29 05:15:32;;;;;;;25.63;17.52;;;;;;;15.08;76.35;100928.78;4904225;28;99220;-61
2021/09/29 05:17:58;;;;;;;28.05;17.30;;;;;;;15.10;75.95;100928.53;4920057;28;127833;-63
2021/09/29 05:20:25;;;;;;;26.05;18.15;;;;;;;15.10;76.10;100926.63;4924399;28;127598;-61
2021/09/29 05:22:51;;;;;;;27.08;18.25;;;;;;;15.10;76.03;100932.03;4920639;28;99491;-61
2021/09/29 05:25:17;;;;;;;29.25;18.20;;;;;;;15.11;76.04;100925.50;4920566;28;127065;-61
2021/09/29 05:27:43;;;;;;;26.80;17.95;;;;;;;15.12;76.18;100927.13;4920929;28;128346;-63
2021/09/29 05:30:09;;;;;;;27.17;17.98;;;;;;;15.14;76.04;100924.94;4919393;28;126181;-61
2021/09/29 05:32:35;;;;;;;28.58;18.55;;;;;;;15.15;76.37;100923.84;4921186;28;98321;-61
2021/09/29 05:35:01;;;;;;;29.33;18.27;;;;;;;15.18;75.93;100922.47;4919916;28;128910;-63
2021/09/29 05:37:28;;;;;;;32.83;19.48;;;;;;;15.23;75.92;100925.13;4918672;28;117044;-60
2021/09/29 05:39:54;;;;;;;29.20;18.77;;;;;;;15.29;76.41;100929.41;4903437;28;98887;-62
2021/09/29 05:42:20;;;;;;;32.42;19.63;;;;;;;15.36;75.83;100934.50;4917531;28;122194;-62
2021/09/29 05:44:46;;;;;;;32.05;20.13;;;;;;;15.43;76.15;100919.47;4919637;28;128011;-61
2021/09/29 05:47:12;;;;;;;29.58;19.25;;;;;;;15.52;75.46;100921.53;4920380;28;98505;-62
2021/09/29 05:49:38;;;;;;;30.92;20.02;;;;;;;15.58;75.52;100909.53;4918632;28;114549;-61
2021/09/29 05:52:04;;;;;;;33.70;21.30;;;;;;;15.64;75.46;100913.78;4918301;28;97791;-61
2021/09/29 05:54:31;;;;;;;33.85;21.05;;;;;;;15.68;75.47;100910.25;4917785;28;98825;-61
2021/09/29 05:56:57;;;;;;;35.45;22.17;;;;;;;15.73;75.33;100905.88;4917574;28;97912;-61
2021/09/29 05:59:23;;;;;;;35.78;21.50;;;;;;;15.76;75.48;100903.38;4917553;28;105345;-62
2021/09/29 06:01:51;;;;;;;35.55;22.45;;;;;;;15.76;75.13;100908.81;4916234;28;123006;-60
2021/09/29 06:04:17;;;;;;;33.40;21.52;;;;;;;15.80;75.04;100906.28;4917484;28;97823;-62
2021/09/29 06:06:43;;;;;;;37.00;21.75;;;;;;;15.81;75.26;100907.94;4917450;28;98899;-63
2021/09/29 06:09:09;;;;;;;37.97;22.80;;;;;;;15.84;74.96;100904.63;4913233;28;113541;-61
2021/09/29 06:11:35;;;;;;;37.05;23.15;;;;;;;15.84;75.31;100901.91;4916671;28;125355;-61
2021/09/29 06:14:03;;;;;;;36.33;22.63;;;;;;;15.85;75.39;100903.53;4917486;28;128076;-62
2021/09/29 06:16:31;;;;;;;36.97;23.27;;;;;;;15.87;75.08;100901.31;4914819;28;98358;-61
2021/09/29 06:18:57;;;;;;;41.28;24.45;;;;;;;15.89;74.98;100893.69;4917765;28;98544;-63
2021/09/29 06:21:23;;;;;;;38.08;23.45;;;;;;;15.87;75.07;100891.25;4913828;28;122919;-62
2021/09/29 06:23:49;;;;;;;39.65;23.58;;;;;;;15.87;74.66;100890.44;4915774;28;97882;-63
2021/09/29 06:26:16;;;;;;;36.90;23.15;;;;;;;15.88;75.20;100892.06;4915819;28;125553;-60
2021/09/29 06:28:42;;;;;;;38.15;24.42;;;;;;;15.88;75.26;100876.56;4917604;28;115891;-62
2021/09/29 06:31:08;;;;;;;36.92;23.73;;;;;;;15.90;74.82;100873.56;4916523;28;120143;-61
2021/09/29 06:33:34;;;;;;;37.60;23.77;;;;;;;15.92;74.82;100872.16;4911309;28;128073;-61
2021/09/29 06:36:01;;;;;;;37.75;23.15;;;;;;;15.93;74.70;100864.81;4916149;28;108042;-61
2021/09/29 06:38:27;;;;;;;35.78;23.65;;;;;;;15.95;74.56;100862.59;4916723;28;98596;-63
2021/09/29 06:40:53;;;;;;;35.08;23.90;;;;;;;15.98;74.75;100864.72;4915665;28;122770;-63
2021/09/29 06:43:19;;;;;;;39.40;24.50;;;;;;;16.00;74.85;100865.25;4916356;28;125761;-61
2021/09/29 06:45:45;;;;;;;35.55;23.05;;;;;;;16.02;74.85;100857.59;4917141;28;98535;-62
2021/09/29 06:48:11;;;;;;;35.42;22.30;;;;;;;16.07;74.35;100857.56;4916830;28;117907;-61
2021/09/29 06:50:38;;;;;;;38.40;23.80;;;;;;;16.13;74.41;100848.19;4909835;28;110583;-61
2021/09/29 06:53:04;;;;;;;35.38;24.20;;;;;;;16.20;73.86;100854.06;4916878;28;104008;-61
2021/09/29 06:55:31;;;;;;;36.35;23.35;;;;;;;16.29;73.88;100867.00;4916724;28;117354;-61
2021/09/29 06:57:57;;;;;;;36.55;23.30;;;;;;;16.33;73.60;100870.75;4915794;28;124872;-63
2021/09/29 07:00:23;;;;;;;33.53;22.30;;;;;;;16.37;73.88;100879.94;4916542;28;123670;-62
2021/09/29 07:02:49;;;;;;;34.10;23.42;;;;;;;16.38;73.34;100876.91;4916052;28;98971;-61
2021/09/29 07:05:16;;;;;;;33.38;22.67;;;;;;;16.41;73.66;100875.50;4916624;28;99364;-61
2021/09/29 07:07:42;;;;;;;35.60;22.98;;;;;;;16.42;73.81;100875.22;4917002;28;98340;-61
2021/09/29 07:10:09;;;;;;;34.35;22.42;;;;;;;16.48;73.45;100872.44;4882990;28;98213;-63
2021/09/29 07:12:40;;;;;;;34.67;23.42;;;;;;;16.50;73.41;100872.91;4915796;28;99048;-63
2021/09/29 07:15:08;;;;;;;35.03;23.05;;;;;;;16.55;73.15;100872.84;4917771;28;98533;-61
2021/09/29 07:17:34;;;;;;;29.65;20.65;;;;;;;16.61;73.28;100872.47;4916567;28;98511;-63
2021/09/29 07:20:02;;;;;;;32.92;21.77;;;;;;;16.65;73.07;100867.22;4917425;28;97937;-61
2021/09/29 07:22:28;;;;;;;31.77;21.92;;;;;;;16.71;72.81;100860.59;4915997;28;98523;-63
2021/09/29 07:24:55;;;;;;;28.75;21.83;;;;;;;16.77;72.53;100861.34;4916227;28;125463;-61
2021/09/29 07:27:21;;;;;;;31.15;21.60;;;;;;;16.83;72.27;100850.06;4916896;28;99058;-63
2021/09/29 07:29:47;;;;;;;31.15;21.98;;;;;;;16.90;71.74;100861.38;4916184;28;122540;-62
2021/09/29 07:32:13;;;;;;;30.98;22.08;;;;;;;16.98;71.99;100859.06;4914947;28;126416;-63
2021/09/29 07:34:40;;;;;;;30.92;22.35;;;;;;;17.03;71.76;100851.63;4916599;28;107981;-63
2021/09/29 07:37:06;;;;;;;28.63;21.58;;;;;;;17.06;71.72;100850.22;4914689;28;114231;-62
2021/09/29 07:39:32;;;;;;;30.30;21.55;;;;;;;17.09;71.16;100844.16;4916424;28;123141;-62
2021/09/29 07:41:58;;;;;;;30.65;21.38;;;;;;;17.13;71.06;100839.69;4915007;28;128310;-61
2021/09/29 07:44:24;;;;;;;31.83;22.77;;;;;;;17.18;71.58;100847.81;4915427;28;128121;-63
2021/09/29 07:46:50;;;;;;;30.42;22.17;;;;;;;17.20;71.83;100842.03;4905554;28;126785;-63
2021/09/29 07:49:21;;;;;;;30.58;22.77;;;;;;;17.24;71.32;100837.59;4919423;28;122518;-61
2021/09/29 07:51:48;;;;;;;30.05;21.83;;;;;;;17.26;71.06;100851.72;4918382;28;98225;-61
2021/09/29 07:54:14;;;;;;;30.35;22.13;;;;;;;17.26;71.00;100849.00;4919834;28;98733;-61
2021/09/29 07:56:40;;;;;;;33.72;23.05;;;;;;;17.27;71.01;100851.41;4918744;28;121659;-63
2021/09/29 07:59:06;;;;;;;32.25;22.33;;;;;;;17.26;71.32;100847.09;4919101;28;122079;-63
2021/09/29 08:01:32;;;;;;;31.35;22.70;;;;;;;17.26;71.12;100854.47;4918965;28;108774;-62
2021/09/29 08:03:58;;;;;;;30.90;22.60;;;;;;;17.23;70.81;100857.78;4919235;28;128425;-61
2021/09/29 08:06:24;;;;;;;31.52;22.17;;;;;;;17.21;70.92;100863.50;4918723;28;127983;-61
2021/09/29 08:08:53;;;;;;;33.30;23.63;;;;;;;17.21;70.90;100866.22;4918555;28;98058;-61
2021/09/29 08:11:19;;;;;;;30.30;23.08;;;;;;;17.20;70.76;100869.28;4917124;28;98233;-63
2021/09/29 08:13:45;;;;;;;34.53;23.08;;;;;;;17.20;70.31;100870.06;4901952;28;99336;-63
2021/09/29 08:16:11;;;;;;;30.40;22.50;;;;;;;17.22;70.49;100867.88;4918947;28;98128;-63
2021/09/29 08:18:37;;;;;;;29.70;22.50;;;;;;;17.24;71.12;100862.91;4919220;28;121602;-61
2021/09/29 08:21:08;;;;;;;32.13;22.83;;;;;;;17.29;71.00;100870.19;4919353;28;103966;-61
2021/09/29 08:23:37;;;;;;;29.58;21.80;;;;;;;17.38;70.70;100866.47;4919844;28;99207;-61
2021/09/29 08:28:57;;;;;;;29.98;21.25;;;;;;;17.46;70.96;100880.50;4916869;28;97770;-61
2021/09/29 08:31:39;;;;;;;29.52;22.95;;;;;;;17.45;70.83;100881.56;4918844;28;98422;-63
2021/09/29 08:34:13;;;;;;;31.90;23.37;;;;;;;17.46;71.03;100881.28;4919854;28;97981;-64
2021/09/29 08:42:01;;;;;;;32.92;22.98;;;;;;;17.65;70.31;100862.91;4916589;28;113240;-61
2021/09/29 08:44:32;;;;;;;30.70;22.90;;;;;;;17.75;70.08;100866.56;4889247;28;98095;-63
2021/09/29 08:47:11;;;;;;;31.65;23.38;;;;;;;17.80;70.05;100864.53;4918437;28;99303;-63
2021/09/29 08:49:52;;;;;;;31.52;23.05;;;;;;;17.83;70.43;100855.72;4919283;28;98057;-61
2021/09/29 09:17:01;;;;;;;34.78;24.52;;;;;;;17.72;71.37;100869.84;4914411;28;98091;-61
2021/09/29 09:19:29;;;;;;;30.35;23.38;;;;;;;17.61;71.57;100869.28;4901021;28;98250;-63
2021/09/29 09:22:05;;;;;;;34.00;24.23;;;;;;;17.50;71.83;100867.88;4917724;28;98246;-61
2021/09/29 09:24:34;;;;;;;37.35;26.23;;;;;;;17.46;72.21;100864.13;4918019;28;105635;-61
2021/09/29 09:27:05;;;;;;;35.15;26.15;;;;;;;17.38;72.43;100874.63;4918019;28;98322;-63
2021/09/29 09:29:31;;;;;;;34.30;24.85;;;;;;;17.29;72.80;100871.00;4917912;28;97777;-61
2021/09/29 09:32:11;;;;;;;35.08;26.38;;;;;;;17.17;72.85;100868.78;4917689;28;99461;-63
2021/09/29 09:34:38;;;;;;;41.55;28.33;;;;;;;17.13;73.79;100866.94;4918691;28;104722;-61
2021/09/29 09:37:08;;;;;;;35.05;27.55;;;;;;;17.04;73.65;100871.47;4916981;28;98577;-61
2021/09/29 09:39:34;;;;;;;35.78;26.92;;;;;;;17.01;74.43;100874.78;4918214;28;97800;-61
2021/09/29 09:42:03;;;;;;;37.65;27.88;;;;;;;16.97;74.56;100877.31;4915716;28;123014;-63
2021/09/29 09:44:34;;;;;;;34.90;26.38;;;;;;;16.89;74.17;100867.91;4917697;28;98828;-63
2021/09/29 09:47:05;;;;;;;35.50;27.63;;;;;;;16.84;74.33;100870.75;4917981;28;99128;-63
2021/09/29 09:49:51;;;;;;;36.05;28.50;;;;;;;16.81;74.54;100871.31;4917364;28;98146;-64
2021/09/29 09:52:28;;;;;;;41.03;31.33;;;;;;;16.77;74.47;100864.88;4917178;28;97860;-64
2021/09/29 09:55:04;;;;;;;40.05;29.15;;;;;;;16.73;74.93;100869.28;4918096;28;98408;-61
2021/09/29 09:57:33;;;;;;;49.78;33.80;;;;;;;16.69;75.19;100874.50;4915612;28;98411;-61
2021/09/29 09:59:59;;;;;;;46.05;32.63;;;;;;;16.61;75.72;100886.06;4917922;28;98485;-61
2021/09/29 10:02:25;;;;;;;41.22;31.27;;;;;;;16.54;75.56;100887.53;4917460;28;97895;-64
2021/09/29 10:04:51;;;;;;;46.22;33.58;;;;;;;16.51;76.17;100886.25;4917140;28;114153;-61
2021/09/29 10:07:17;;;;;;;41.03;31.48;;;;;;;16.48;76.10;100875.16;4917171;28;98524;-64
2021/09/29 10:09:55;;;;;;;50.40;35.53;;;;;;;16.47;76.19;100876.25;4916893;28;111765;-63
2021/09/29 10:12:36;;;;;;;42.67;31.48;;;;;;;16.41;76.55;100870.88;4917464;28;98038;-61
2021/09/29 10:23:15;;;;;;;43.53;32.95;;;;;;;16.39;76.31;100861.41;4901490;28;98118;-63
2021/09/29 10:28:41;;;;;;;38.45;29.92;;;;;;;16.38;76.70;100879.63;4917767;28;98542;-63
2021/09/29 10:31:23;;;;;;;42.13;32.50;;;;;;;16.35;76.83;100866.63;4916467;28;97833;-63
2021/09/29 10:34:05;;;;;;;39.72;31.05;;;;;;;16.33;76.90;100868.84;4916926;28;97979;-62
2021/09/29 10:44:31;;;;;;;;;;;;;;;16.48;75.97;100861.53;4914503;28;98231;-63
2021/09/29 10:50:08;;;;;;;44.13;34.55;;;;;;;16.64;76.30;100852.81;4914869;28;98435;-61
2021/09/29 11:30:55;;;;;;;23.85;19.38;;;;;;;17.93;73.53;100829.34;4911299;28;99064;-62
2021/09/29 11:36:12;;;;;;;19.65;16.40;;;;;;;17.93;73.30;100826.63;4896975;28;98811;-62
2021/09/29 11:39:23;;;;;;;18.00;15.90;;;;;;;17.87;73.48;100826.72;4916675;28;97927;-59
2021/09/29 12:12:17;;;;;;;16.15;13.48;;;;;;;18.39;70.78;100831.78;4912365;28;98065;-63
2021/09/29 12:15:10;;;;;;;16.10;14.43;;;;;;;18.42;70.68;100835.81;4915034;28;98879;-61
2021/09/29 12:17:39;;;;;;;14.80;13.00;;;;;;;18.56;70.12;100822.91;4914799;28;98763;-61
2021/09/29 12:20:15;;;;;;;11.75;10.48;;;;;;;18.70;69.48;100826.38;4916199;28;98286;-61
2021/09/29 12:22:49;;;;;;;12.43;10.77;;;;;;;18.71;69.82;100816.28;4915906;28;98212;-61
2021/09/29 12:25:29;;;;;;;11.45;10.18;;;;;;;18.67;70.09;100816.06;4916811;28;98614;-63
2021/09/29 12:31:25;;;;;;;10.25;9.05;;;;;;;18.81;69.21;100816.81;4912572;28;97855;-61
2021/09/29 12:34:15;;;;;;;8.63;7.75;;;;;;;18.99;67.86;100814.16;4917556;28;97936;-61
2021/09/29 12:36:41;;;;;;;8.82;7.93;;;;;;;19.34;67.95;100826.81;4919473;28;98464;-61
2021/09/29 12:39:18;;;;;;;9.90;8.27;;;;;;;19.45;67.85;100827.31;4918580;28;105443;-61
2021/09/29 12:41:52;;;;;;;9.98;8.32;;;;;;;19.41;67.82;100837.28;4919010;28;98121;-61
2021/09/29 12:44:19;;;;;;;9.25;7.97;;;;;;;19.34;67.84;100842.41;4919769;28;97875;-63
2021/09/29 12:47:04;;;;;;;10.63;7.72;;;;;;;19.28;67.81;100849.94;4916891;28;98173;-61
2021/09/29 12:49:30;;;;;;;8.13;7.30;;;;;;;19.28;67.50;100844.47;4917305;28;98441;-63
2021/09/29 12:52:06;;;;;;;8.23;7.43;;;;;;;19.20;67.60;100852.66;4919038;28;99136;-63
2021/09/29 12:54:32;;;;;;;8.57;7.43;;;;;;;19.10;68.07;100840.88;4919735;28;98158;-62
2021/09/29 12:56:58;;;;;;;8.27;7.13;;;;;;;18.96;67.70;100844.84;4917540;28;127374;-63
2021/09/29 12:59:24;;;;;;;9.30;7.28;;;;;;;18.84;68.42;100840.75;4917733;28;127465;-63
2021/09/29 13:01:50;;;;;;;8.18;7.32;;;;;;;18.76;68.46;100840.72;4917338;28;128198;-61
2021/09/29 13:04:18;;;;;;;8.35;7.22;;;;;;;18.68;69.27;100850.44;4918085;28;121977;-62
2021/09/29 13:06:44;;;;;;;9.75;7.82;;;;;;;18.53;69.56;100837.97;4916760;28;98461;-63
2021/09/29 13:09:10;;;;;;;8.88;6.70;;;;;;;18.45;70.21;100843.38;4915087;28;127959;-63
2021/09/29 13:11:36;;;;;;;8.40;7.55;;;;;;;18.37;70.22;100847.66;4917602;28;97837;-62
2021/09/29 13:14:02;;;;;;;9.60;7.55;;;;;;;18.31;70.54;100843.44;4916014;28;122671;-62
2021/09/29 13:16:28;;;;;;;8.52;7.45;;;;;;;18.25;70.58;100844.69;4899804;28;126843;-62
2021/09/29 13:21:33;;;;;;;9.63;8.43;;;;;;;18.21;70.53;100843.69;4914632;28;113412;-61
2021/09/29 13:24:10;;;;;;;9.02;7.88;;;;;;;18.24;70.46;100834.91;4919529;28;98458;-61
2021/09/29 13:37:34;;;;;;;7.20;6.03;;;;;;;18.64;68.88;100833.06;4914829;28;98032;-61